sensor_id;sensor_type;location;lat;lon;timestamp;pressure;altitude;pressure_sealevel;temperature;humidity
28927;BME280;16038;47.692;9.400;2023-10-13T00:01:42;96889.66;;;12.81;100.00
28927;BME280;16038;47.692;9.400;2023-10-13T00:04:08;96892.00;;;12.79;100.00
28927;BME280;16038;47.692;9.400;2023-10-13T00:06:34;96889.16;;;12.72;100.00
28927;BME280;16038;47.692;9.400;2023-10-13T00:08:59;96892.50;;;12.55;100.00
28927;BME280;16038;47.692;9.400;2023-10-13T00:11:25;96888.94;;;12.51;100.00
28927;BME280;16038;47.692;9.400;2023-10-13T00:13:52;96885.06;;;12.55;100.00
28927;BME280;16038;47.692;9.400;2023-10-13T00:16:20;96888.59;;;12.56;100.00
28927;BME280;16038;47.692;9.400;2023-10-13T00:18:52;96888.16;;;12.50;100.00
28927;BME280;16038;47.692;9.400;2023-10-13T00:21:23;96888.84;;;12.43;100.00
28927;BME280;16038;47.692;9.400;2023-10-13T00:23:59;96891.03;;;12.31;100.00
28927;BME280;16038;47.692;9.400;2023-10-13T00:26:28;96888.75;;;12.36;100.00
28927;BME280;16038;47.692;9.400;2023-10-13T00:29:01;96880.56;;;12.40;100.00
28927;BME280;16038;47.692;9.400;2023-10-13T00:31:39;96880.16;;;12.38;100.00
28927;BME280;16038;47.692;9.400;2023-10-13T00:34:11;96880.56;;;12.40;100.00
28927;BME280;16038;47.692;9.400;2023-10-13T00:36:40;96878.13;;;12.35;100.00
28927;BME280;16038;47.692;9.400;2023-10-13T00:39:14;96880.47;;;12.33;100.00
28927;BME280;16038;47.692;9.400;2023-10-13T00:41:42;96877.19;;;12.20;100.00
28927;BME280;16038;47.692;9.400;2023-10-13T00:44:30;96879.41;;;12.11;100.00
28927;BME280;16038;47.692;9.400;2023-10-13T00:47:12;96873.38;;;11.98;100.00
28927;BME280;16038;47.692;9.400;2023-10-13T00:49:47;96865.56;;;12.00;100.00
28927;BME280;16038;47.692;9.400;2023-10-13T00:52:15;96868.66;;;11.98;100.00
28927;BME280;16038;47.692;9.400;2023-10-13T00:54:43;96874.16;;;11.98;100.00
28927;BME280;16038;47.692;9.400;2023-10-13T00:57:14;96870.16;;;11.92;100.00
28927;BME280;16038;47.692;9.400;2023-10-13T00:59:55;96873.72;;;11.96;100.00
28927;BME280;16038;47.692;9.400;2023-10-13T01:02:21;96870.44;;;11.87;100.00
28927;BME280;16038;47.692;9.400;2023-10-13T01:05:02;96874.75;;;11.88;100.00
28927;BME280;16038;47.692;9.400;2023-10-13T01:07:28;96876.31;;;11.85;100.00
28927;BME280;16038;47.692;9.400;2023-10-13T01:09:54;96884.13;;;11.83;100.00
28927;BME280;16038;47.692;9.400;2023-10-13T01:12:20;96868.34;;;11.77;100.00
28927;BME280;16038;47.692;9.400;2023-10-13T01:14:48;96878.16;;;11.78;100.00
28927;BME280;16038;47.692;9.400;2023-10-13T01:17:14;96865.44;;;11.66;100.00
28927;BME280;16038;47.692;9.400;2023-10-13T01:19:39;96867.28;;;11.58;100.00
28927;BME280;16038;47.692;9.400;2023-10-13T01:22:08;96866.41;;;11.51;100.00
28927;BME280;16038;47.692;9.400;2023-10-13T01:24:33;96870.28;;;11.50;100.00
28927;BME280;16038;47.692;9.400;2023-10-13T01:27:02;96859.19;;;11.42;100.00
28927;BME280;16038;47.692;9.400;2023-10-13T01:29:43;96862.38;;;11.44;100.00
28927;BME280;16038;47.692;9.400;2023-10-13T01:32:22;96857.44;;;11.31;100.00
28927;BME280;16038;47.692;9.400;2023-10-13T01:34:48;96856.06;;;11.17;100.00
28927;BME280;16038;47.692;9.400;2023-10-13T01:37:15;96852.53;;;11.17;100.00
28927;BME280;16038;47.692;9.400;2023-10-13T01:39:41;96856.19;;;11.24;100.00
28927;BME280;16038;47.692;9.400;2023-10-13T01:42:07;96849.97;;;11.27;100.00
28927;BME280;16038;47.692;9.400;2023-10-13T01:44:32;96847.91;;;11.21;100.00
28927;BME280;16038;47.692;9.400;2023-10-13T01:47:01;96847.53;;;11.22;100.00
28927;BME280;16038;47.692;9.400;2023-10-13T01:49:33;96847.53;;;11.22;100.00
28927;BME280;16038;47.692;9.400;2023-10-13T01:52:10;96839.38;;;11.26;100.00
28927;BME280;16038;47.692;9.400;2023-10-13T01:54:39;96838.53;;;11.22;100.00
28927;BME280;16038;47.692;9.400;2023-10-13T01:57:09;96847.16;;;11.24;100.00
28927;BME280;16038;47.692;9.400;2023-10-13T01:59:40;96839.63;;;11.17;100.00
28927;BME280;16038;47.692;9.400;2023-10-13T02:02:10;96834.06;;;11.14;100.00
28927;BME280;16038;47.692;9.400;2023-10-13T02:04:39;96846.50;;;11.07;100.00
28927;BME280;16038;47.692;9.400;2023-10-13T02:07:14;96847.97;;;11.01;100.00
28927;BME280;16038;47.692;9.400;2023-10-13T02:09:41;96839.91;;;10.89;100.00
28927;BME280;16038;47.692;9.400;2023-10-13T02:12:08;96843.84;;;10.88;100.00
28927;BME280;16038;47.692;9.400;2023-10-13T02:14:35;96842.00;;;10.96;100.00
28927;BME280;16038;47.692;9.400;2023-10-13T02:17:02;96839.63;;;10.94;100.00
28927;BME280;16038;47.692;9.400;2023-10-13T02:19:41;96842.06;;;10.99;100.00
28927;BME280;16038;47.692;9.400;2023-10-13T02:22:11;96841.75;;;10.81;100.00
28927;BME280;16038;47.692;9.400;2023-10-13T02:24:37;96842.75;;;10.73;100.00
28927;BME280;16038;47.692;9.400;2023-10-13T02:27:08;96836.38;;;10.65;100.00
28927;BME280;16038;47.692;9.400;2023-10-13T02:29:40;96834.28;;;10.59;100.00
28927;BME280;16038;47.692;9.400;2023-10-13T02:32:06;96833.00;;;10.52;100.00
28927;BME280;16038;47.692;9.400;2023-10-13T02:34:38;96833.25;;;10.44;100.00
28927;BME280;16038;47.692;9.400;2023-10-13T02:37:09;96840.38;;;10.48;100.00
28927;BME280;16038;47.692;9.400;2023-10-13T02:39:36;96835.09;;;10.59;100.00
28927;BME280;16038;47.692;9.400;2023-10-13T02:42:09;96841.44;;;10.63;100.00
28927;BME280;16038;47.692;9.400;2023-10-13T02:44:41;96842.75;;;10.73;100.00
28927;BME280;16038;47.692;9.400;2023-10-13T02:47:11;96832.13;;;10.68;100.00
28927;BME280;16038;47.692;9.400;2023-10-13T02:49:38;96837.00;;;10.36;100.00
28927;BME280;16038;47.692;9.400;2023-10-13T02:52:08;96837.47;;;10.22;100.00
28927;BME280;16038;47.692;9.400;2023-10-13T02:54:35;96830.41;;;10.21;100.00
28927;BME280;16038;47.692;9.400;2023-10-13T02:57:05;96821.56;;;10.27;100.00
28927;BME280;16038;47.692;9.400;2023-10-13T02:59:32;96827.56;;;10.33;100.00
28927;BME280;16038;47.692;9.400;2023-10-13T03:02:04;96827.19;;;10.35;100.00
28927;BME280;16038;47.692;9.400;2023-10-13T03:04:53;96820.16;;;10.33;100.00
28927;BME280;16038;47.692;9.400;2023-10-13T03:07:27;96821.28;;;10.32;100.00
28927;BME280;16038;47.692;9.400;2023-10-13T03:09:57;96824.72;;;10.29;100.00
28927;BME280;16038;47.692;9.400;2023-10-13T03:12:35;96829.13;;;10.14;100.00
28927;BME280;16038;47.692;9.400;2023-10-13T03:15:01;96825.81;;;10.05;100.00
28927;BME280;16038;47.692;9.400;2023-10-13T03:17:36;96828.28;;;10.10;100.00
28927;BME280;16038;47.692;9.400;2023-10-13T03:20:02;96834.09;;;10.09;100.00
28927;BME280;16038;47.692;9.400;2023-10-13T03:22:30;96828.63;;;10.09;100.00
28927;BME280;16038;47.692;9.400;2023-10-13T03:24:57;96829.69;;;10.04;100.00
28927;BME280;16038;47.692;9.400;2023-10-13T03:27:29;96826.81;;;9.97;100.00
28927;BME280;16038;47.692;9.400;2023-10-13T03:30:06;96828.47;;;10.02;100.00
28927;BME280;16038;47.692;9.400;2023-10-13T03:32:39;96824.75;;;9.90;100.00
28927;BME280;16038;47.692;9.400;2023-10-13T03:35:11;96819.63;;;9.89;100.00
28927;BME280;16038;47.692;9.400;2023-10-13T03:37:53;96816.97;;;9.92;100.00
28927;BME280;16038;47.692;9.400;2023-10-13T03:40:19;96818.81;;;9.88;100.00
28927;BME280;16038;47.692;9.400;2023-10-13T03:42:45;96823.06;;;9.86;100.00
28927;BME280;16038;47.692;9.400;2023-10-13T03:45:23;96817.16;;;9.84;100.00
28927;BME280;16038;47.692;9.400;2023-10-13T03:47:50;96815.56;;;9.83;100.00
28927;BME280;16038;47.692;9.400;2023-10-13T03:50:17;96813.66;;;9.83;100.00
28927;BME280;16038;47.692;9.400;2023-10-13T03:52:55;96806.94;;;9.81;100.00
28927;BME280;16038;47.692;9.400;2023-10-13T03:55:26;96806.59;;;9.82;100.00
28927;BME280;16038;47.692;9.400;2023-10-13T03:57:52;96806.00;;;9.73;100.00
28927;BME280;16038;47.692;9.400;2023-10-13T04:00:20;96803.69;;;9.75;100.00
28927;BME280;16038;47.692;9.400;2023-10-13T04:02:51;96799.00;;;9.75;100.00
28927;BME280;16038;47.692;9.400;2023-10-13T04:05:32;96798.34;;;9.63;100.00
28927;BME280;16038;47.692;9.400;2023-10-13T04:08:06;96796.31;;;9.60;100.00
28927;BME280;16038;47.692;9.400;2023-10-13T04:10:54;96790.06;;;9.59;100.00
28927;BME280;16038;47.692;9.400;2023-10-13T04:13:20;96790.50;;;9.61;100.00
28927;BME280;16038;47.692;9.400;2023-10-13T04:16:07;96781.78;;;9.55;100.00
28927;BME280;16038;47.692;9.400;2023-10-13T04:18:51;96785.97;;;9.49;100.00
28927;BME280;16038;47.692;9.400;2023-10-13T04:21:26;96787.63;;;9.54;100.00
28927;BME280;16038;47.692;9.400;2023-10-13T04:24:12;96795.47;;;9.55;100.00
28927;BME280;16038;47.692;9.400;2023-10-13T04:26:52;96788.94;;;9.60;100.00
28927;BME280;16038;47.692;9.400;2023-10-13T04:29:37;96790.41;;;9.57;100.00
28927;BME280;16038;47.692;9.400;2023-10-13T04:32:21;96792.03;;;9.59;100.00
28927;BME280;16038;47.692;9.400;2023-10-13T04:34:59;96782.56;;;9.56;100.00
28927;BME280;16038;47.692;9.400;2023-10-13T04:37:35;96782.06;;;9.50;100.00
28927;BME280;16038;47.692;9.400;2023-10-13T04:40:17;96781.47;;;9.41;100.00
28927;BME280;16038;47.692;9.400;2023-10-13T04:42:51;96775.19;;;9.21;100.00
28927;BME280;16038;47.692;9.400;2023-10-13T04:45:23;96772.81;;;9.04;100.00
28927;BME280;16038;47.692;9.400;2023-10-13T04:47:59;96771.09;;;8.95;100.00
28927;BME280;16038;47.692;9.400;2023-10-13T04:50:47;96773.28;;;8.74;100.00
28927;BME280;16038;47.692;9.400;2023-10-13T04:53:17;96769.59;;;8.66;100.00
28927;BME280;16038;47.692;9.400;2023-10-13T04:56:20;96774.00;;;8.71;100.00
28927;BME280;16038;47.692;9.400;2023-10-13T04:59:04;96768.44;;;8.67;100.00
28927;BME280;16038;47.692;9.400;2023-10-13T05:01:48;96770.66;;;8.77;100.00
28927;BME280;16038;47.692;9.400;2023-10-13T05:04:23;96766.59;;;8.71;100.00
28927;BME280;16038;47.692;9.400;2023-10-13T05:07:04;96763.75;;;8.68;100.00
28927;BME280;16038;47.692;9.400;2023-10-13T05:09:49;96769.22;;;8.68;100.00
28927;BME280;16038;47.692;9.400;2023-10-13T05:12:33;96752.06;;;8.51;100.00
28927;BME280;16038;47.692;9.400;2023-10-13T05:15:18;96763.59;;;8.60;100.00
28927;BME280;16038;47.692;9.400;2023-10-13T05:18:03;96758.38;;;8.71;100.00
28927;BME280;16038;47.692;9.400;2023-10-13T05:20:48;96761.56;;;8.89;100.00
28927;BME280;16038;47.692;9.400;2023-10-13T05:23:32;96768.69;;;9.10;100.00
28927;BME280;16038;47.692;9.400;2023-10-13T05:26:16;96762.88;;;9.11;100.00
28927;BME280;16038;47.692;9.400;2023-10-13T05:29:00;96762.59;;;9.16;100.00
28927;BME280;16038;47.692;9.400;2023-10-13T05:31:44;96774.41;;;9.21;100.00
28927;BME280;16038;47.692;9.400;2023-10-13T05:34:28;96773.53;;;9.16;100.00
28927;BME280;16038;47.692;9.400;2023-10-13T05:37:11;96779.06;;;9.20;100.00
28927;BME280;16038;47.692;9.400;2023-10-13T05:39:56;96769.38;;;9.23;100.00
28927;BME280;16038;47.692;9.400;2023-10-13T05:42:44;96777.81;;;9.17;100.00
28927;BME280;16038;47.692;9.400;2023-10-13T05:45:28;96780.13;;;9.15;100.00
28927;BME280;16038;47.692;9.400;2023-10-13T05:48:22;96787.91;;;9.13;100.00
28927;BME280;16038;47.692;9.400;2023-10-13T05:51:07;96789.13;;;9.16;100.00
28927;BME280;16038;47.692;9.400;2023-10-13T05:53:50;96784.59;;;9.24;100.00
28927;BME280;16038;47.692;9.400;2023-10-13T05:56:34;96788.72;;;9.33;100.00
28927;BME280;16038;47.692;9.400;2023-10-13T05:59:18;96793.94;;;9.38;100.00
28927;BME280;16038;47.692;9.400;2023-10-13T06:02:03;96794.56;;;9.32;100.00
28927;BME280;16038;47.692;9.400;2023-10-13T06:04:47;96789.47;;;9.14;100.00
28927;BME280;16038;47.692;9.400;2023-10-13T06:07:32;96784.66;;;8.92;100.00
28927;BME280;16038;47.692;9.400;2023-10-13T06:10:16;96787.91;;;8.82;100.00
28927;BME280;16038;47.692;9.400;2023-10-13T06:13:00;96783.13;;;8.94;100.00
28927;BME280;16038;47.692;9.400;2023-10-13T06:15:44;96788.63;;;9.46;100.00
28927;BME280;16038;47.692;9.400;2023-10-13T06:18:28;96795.06;;;9.92;100.00
28927;BME280;16038;47.692;9.400;2023-10-13T06:21:11;96792.63;;;10.26;100.00
28927;BME280;16038;47.692;9.400;2023-10-13T06:23:55;96792.84;;;10.60;100.00
28927;BME280;16038;47.692;9.400;2023-10-13T06:26:39;96780.50;;;10.93;100.00
28927;BME280;16038;47.692;9.400;2023-10-13T06:29:23;96788.28;;;11.71;100.00
28927;BME280;16038;47.692;9.400;2023-10-13T06:31:50;96788.88;;;12.52;100.00
28927;BME280;16038;47.692;9.400;2023-10-13T06:34:15;96790.31;;;13.28;100.00
28927;BME280;16038;47.692;9.400;2023-10-13T06:36:41;96793.06;;;13.87;100.00
28927;BME280;16038;47.692;9.400;2023-10-13T06:39:11;96794.31;;;14.07;100.00
28927;BME280;16038;47.692;9.400;2023-10-13T06:42:00;96795.31;;;14.69;100.00
28927;BME280;16038;47.692;9.400;2023-10-13T06:44:25;96803.97;;;15.50;100.00
28927;BME280;16038;47.692;9.400;2023-10-13T06:46:51;96805.06;;;16.07;97.75
28927;BME280;16038;47.692;9.400;2023-10-13T06:49:17;96806.66;;;16.81;92.47
28927;BME280;16038;47.692;9.400;2023-10-13T06:51:44;96809.97;;;17.67;86.36
28927;BME280;16038;47.692;9.400;2023-10-13T06:54:11;96813.72;;;18.52;78.29
28927;BME280;16038;47.692;9.400;2023-10-13T06:56:46;96811.97;;;18.97;70.83
28927;BME280;16038;47.692;9.400;2023-10-13T06:59:11;96813.06;;;19.03;71.44
28927;BME280;16038;47.692;9.400;2023-10-13T07:01:39;96811.19;;;18.96;73.53
28927;BME280;16038;47.692;9.400;2023-10-13T07:04:08;96815.41;;;19.04;73.51
28927;BME280;16038;47.692;9.400;2023-10-13T07:06:41;96820.91;;;18.50;76.62
28927;BME280;16038;47.692;9.400;2023-10-13T07:09:17;96811.13;;;18.07;78.60
28927;BME280;16038;47.692;9.400;2023-10-13T07:12:01;96819.69;;;18.20;79.41
28927;BME280;16038;47.692;9.400;2023-10-13T07:14:45;96816.47;;;18.56;78.62
28927;BME280;16038;47.692;9.400;2023-10-13T07:17:18;96818.53;;;18.79;77.25
28927;BME280;16038;47.692;9.400;2023-10-13T07:19:53;96819.78;;;19.29;75.91
28927;BME280;16038;47.692;9.400;2023-10-13T07:22:19;96824.94;;;19.78;72.38
28927;BME280;16038;47.692;9.400;2023-10-13T07:24:46;96824.50;;;20.23;71.75
28927;BME280;16038;47.692;9.400;2023-10-13T07:29:51;96824.50;;;21.32;66.92
28927;BME280;16038;47.692;9.400;2023-10-13T07:32:37;96824.63;;;21.91;64.02
28927;BME280;16038;47.692;9.400;2023-10-13T07:35:03;96835.34;;;22.22;60.96
28927;BME280;16038;47.692;9.400;2023-10-13T07:37:32;96824.56;;;22.24;61.16
28927;BME280;16038;47.692;9.400;2023-10-13T07:39:58;96835.84;;;22.62;60.12
28927;BME280;16038;47.692;9.400;2023-10-13T07:42:25;96842.50;;;23.20;57.41
28927;BME280;16038;47.692;9.400;2023-10-13T07:44:57;96833.47;;;22.48;60.46
28927;BME280;16038;47.692;9.400;2023-10-13T07:47:23;96838.16;;;22.51;60.52
28927;BME280;16038;47.692;9.400;2023-10-13T07:49:50;96840.72;;;23.26;59.50
28927;BME280;16038;47.692;9.400;2023-10-13T07:52:16;96842.50;;;24.28;53.38
28927;BME280;16038;47.692;9.400;2023-10-13T07:55:01;96854.53;;;25.45;50.03
28927;BME280;16038;47.692;9.400;2023-10-13T07:57:45;96852.16;;;25.03;49.45
28927;BME280;16038;47.692;9.400;2023-10-13T08:00:24;96848.56;;;25.02;49.60
28927;BME280;16038;47.692;9.400;2023-10-13T08:03:02;96855.66;;;24.40;48.47
28927;BME280;16038;47.692;9.400;2023-10-13T08:05:40;96858.53;;;25.25;47.79
28927;BME280;16038;47.692;9.400;2023-10-13T08:08:33;96851.91;;;24.56;46.43
28927;BME280;16038;47.692;9.400;2023-10-13T08:11:08;96850.78;;;24.54;47.45
28927;BME280;16038;47.692;9.400;2023-10-13T08:13:46;96842.50;;;26.03;44.79
28927;BME280;16038;47.692;9.400;2023-10-13T08:16:13;96849.09;;;25.50;42.25
28927;BME280;16038;47.692;9.400;2023-10-13T08:18:51;96840.47;;;23.59;44.81
28927;BME280;16038;47.692;9.400;2023-10-13T08:21:17;96838.84;;;24.40;44.34
28927;BME280;16038;47.692;9.400;2023-10-13T08:23:49;96848.06;;;25.66;41.13
28927;BME280;16038;47.692;9.400;2023-10-13T08:26:22;96846.34;;;25.87;40.78
28927;BME280;16038;47.692;9.400;2023-10-13T08:29:06;96838.59;;;24.26;43.57
28927;BME280;16038;47.692;9.400;2023-10-13T08:31:48;96827.47;;;21.74;48.65
28927;BME280;16038;47.692;9.400;2023-10-13T08:34:33;96837.16;;;24.43;43.99
28927;BME280;16038;47.692;9.400;2023-10-13T08:37:07;96840.59;;;25.82;41.18
28927;BME280;16038;47.692;9.400;2023-10-13T08:39:58;96837.22;;;26.24;38.76
28927;BME280;16038;47.692;9.400;2023-10-13T08:42:38;96834.75;;;25.39;41.26
28927;BME280;16038;47.692;9.400;2023-10-13T08:48:00;96845.47;;;26.46;38.64
28927;BME280;16038;47.692;9.400;2023-10-13T08:50:44;96837.16;;;26.88;37.45
28927;BME280;16038;47.692;9.400;2023-10-13T08:56:18;96832.00;;;26.87;37.34
28927;BME280;16038;47.692;9.400;2023-10-13T08:58:58;96833.59;;;26.69;38.16
28927;BME280;16038;47.692;9.400;2023-10-13T09:04:03;96835.03;;;28.62;34.55
28927;BME280;16038;47.692;9.400;2023-10-13T09:06:44;96840.84;;;28.73;32.97
28927;BME280;16038;47.692;9.400;2023-10-13T09:09:23;96843.28;;;29.25;33.17
28927;BME280;16038;47.692;9.400;2023-10-13T09:12:14;96837.31;;;29.08;32.50
28927;BME280;16038;47.692;9.400;2023-10-13T09:14:41;96836.09;;;28.25;33.85
28927;BME280;16038;47.692;9.400;2023-10-13T09:17:11;96833.34;;;29.29;32.90
28927;BME280;16038;47.692;9.400;2023-10-13T09:22:21;96842.59;;;28.85;32.65
28927;BME280;16038;47.692;9.400;2023-10-13T09:24:58;96825.84;;;28.37;34.74
28927;BME280;16038;47.692;9.400;2023-10-13T09:27:25;96830.38;;;28.88;34.10
28927;BME280;16038;47.692;9.400;2023-10-13T09:30:03;96825.75;;;29.35;32.82
28927;BME280;16038;47.692;9.400;2023-10-13T09:32:44;96822.25;;;29.11;32.26
28927;BME280;16038;47.692;9.400;2023-10-13T09:35:18;96827.91;;;29.26;31.62
28927;BME280;16038;47.692;9.400;2023-10-13T09:37:45;96827.91;;;29.61;30.23
28927;BME280;16038;47.692;9.400;2023-10-13T09:40:15;96824.69;;;30.09;29.15
28927;BME280;16038;47.692;9.400;2023-10-13T09:42:53;96812.91;;;29.34;30.41
28927;BME280;16038;47.692;9.400;2023-10-13T09:45:32;96813.50;;;29.95;30.88
28927;BME280;16038;47.692;9.400;2023-10-13T09:48:12;96806.22;;;29.32;34.42
28927;BME280;16038;47.692;9.400;2023-10-13T09:50:47;96788.53;;;29.52;35.14
28927;BME280;16038;47.692;9.400;2023-10-13T09:53:16;96800.28;;;29.86;34.60
28927;BME280;16038;47.692;9.400;2023-10-13T09:56:07;96783.88;;;29.49;36.20
28927;BME280;16038;47.692;9.400;2023-10-13T09:58:50;96775.63;;;28.95;37.15
28927;BME280;16038;47.692;9.400;2023-10-13T10:01:27;96777.09;;;29.41;36.69
28927;BME280;16038;47.692;9.400;2023-10-13T10:04:07;96771.84;;;28.68;36.12
28927;BME280;16038;47.692;9.400;2023-10-13T10:06:35;96773.44;;;28.54;37.90
28927;BME280;16038;47.692;9.400;2023-10-13T10:09:12;96770.91;;;28.02;39.48
28927;BME280;16038;47.692;9.400;2023-10-13T10:11:58;96757.56;;;28.42;38.79
28927;BME280;16038;47.692;9.400;2023-10-13T10:15:06;96765.22;;;27.88;39.39
28927;BME280;16038;47.692;9.400;2023-10-13T10:17:42;96768.09;;;28.02;39.01
28927;BME280;16038;47.692;9.400;2023-10-13T10:20:08;96756.75;;;28.12;39.16
28927;BME280;16038;47.692;9.400;2023-10-13T10:22:58;96755.59;;;28.48;37.79
28927;BME280;16038;47.692;9.400;2023-10-13T10:25:31;96757.72;;;28.09;38.50
28927;BME280;16038;47.692;9.400;2023-10-13T10:28:02;96747.22;;;27.70;38.90
28927;BME280;16038;47.692;9.400;2023-10-13T10:30:35;96739.09;;;27.72;39.51
28927;BME280;16038;47.692;9.400;2023-10-13T10:33:01;96743.28;;;27.77;39.83
28927;BME280;16038;47.692;9.400;2023-10-13T10:35:31;96740.44;;;28.01;39.66
28927;BME280;16038;47.692;9.400;2023-10-13T10:38:08;96736.97;;;28.21;38.18
28927;BME280;16038;47.692;9.400;2023-10-13T10:40:53;96733.47;;;27.87;39.77
28927;BME280;16038;47.692;9.400;2023-10-13T10:45:51;96727.97;;;27.54;39.88
28927;BME280;16038;47.692;9.400;2023-10-13T10:48:16;96718.94;;;27.50;40.29
28927;BME280;16038;47.692;9.400;2023-10-13T10:50:54;96716.13;;;27.50;40.13
28927;BME280;16038;47.692;9.400;2023-10-13T10:53:21;96709.63;;;27.82;39.40
28927;BME280;16038;47.692;9.400;2023-10-13T10:55:48;96710.66;;;27.70;39.61
28927;BME280;16038;47.692;9.400;2023-10-13T10:58:14;96712.00;;;27.75;39.77
28927;BME280;16038;47.692;9.400;2023-10-13T11:01:06;96709.66;;;27.10;41.56
28927;BME280;16038;47.692;9.400;2023-10-13T11:04:02;96702.09;;;27.16;41.17
28927;BME280;16038;47.692;9.400;2023-10-13T11:06:36;96695.09;;;27.60;40.63
28927;BME280;16038;47.692;9.400;2023-10-13T11:09:11;96691.00;;;28.00;40.12
28927;BME280;16038;47.692;9.400;2023-10-13T11:14:39;96678.69;;;28.12;38.70
28927;BME280;16038;47.692;9.400;2023-10-13T11:17:05;96676.16;;;28.14;38.23
28927;BME280;16038;47.692;9.400;2023-10-13T11:19:42;96679.16;;;28.70;37.80
28927;BME280;16038;47.692;9.400;2023-10-13T11:22:15;96670.81;;;29.32;35.55
28927;BME280;16038;47.692;9.400;2023-10-13T11:25:27;96666.13;;;29.08;36.16
28927;BME280;16038;47.692;9.400;2023-10-13T11:27:56;96659.16;;;29.24;35.99
28927;BME280;16038;47.692;9.400;2023-10-13T11:30:23;96668.69;;;29.27;36.17
28927;BME280;16038;47.692;9.400;2023-10-13T11:33:09;96655.84;;;29.26;36.54
28927;BME280;16038;47.692;9.400;2023-10-13T11:35:37;96655.69;;;28.94;37.10
28927;BME280;16038;47.692;9.400;2023-10-13T11:38:19;96654.59;;;28.41;38.33
28927;BME280;16038;47.692;9.400;2023-10-13T11:40:59;96646.63;;;28.39;38.44
28927;BME280;16038;47.692;9.400;2023-10-13T11:43:36;96641.53;;;28.08;38.45
28927;BME280;16038;47.692;9.400;2023-10-13T11:46:14;96644.47;;;27.60;39.23
28927;BME280;16038;47.692;9.400;2023-10-13T11:48:43;96631.16;;;27.45;40.13
28927;BME280;16038;47.692;9.400;2023-10-13T11:51:10;96624.56;;;27.49;39.87
28927;BME280;16038;47.692;9.400;2023-10-13T11:53:45;96622.16;;;27.17;40.43
28927;BME280;16038;47.692;9.400;2023-10-13T11:56:13;96624.25;;;27.32;40.47
28927;BME280;16038;47.692;9.400;2023-10-13T11:58:39;96618.72;;;27.91;40.15
28927;BME280;16038;47.692;9.400;2023-10-13T12:01:06;96612.69;;;28.13;39.32
28927;BME280;16038;47.692;9.400;2023-10-13T12:06:24;96610.41;;;27.73;39.40
28927;BME280;16038;47.692;9.400;2023-10-13T12:09:09;96605.66;;;27.10;40.45
28927;BME280;16038;47.692;9.400;2023-10-13T12:11:49;96593.28;;;26.93;40.60
28927;BME280;16038;47.692;9.400;2023-10-13T12:14:20;96595.00;;;26.90;42.01
28927;BME280;16038;47.692;9.400;2023-10-13T12:17:03;96587.75;;;26.98;41.79
28927;BME280;16038;47.692;9.400;2023-10-13T12:19:30;96581.03;;;27.20;42.16
28927;BME280;16038;47.692;9.400;2023-10-13T12:21:57;96574.78;;;27.01;41.91
28927;BME280;16038;47.692;9.400;2023-10-13T12:24:29;96576.25;;;27.35;41.44
28927;BME280;16038;47.692;9.400;2023-10-13T12:27:00;96573.13;;;27.33;42.03
28927;BME280;16038;47.692;9.400;2023-10-13T12:29:26;96563.28;;;27.14;42.54
28927;BME280;16038;47.692;9.400;2023-10-13T12:31:58;96562.63;;;26.46;44.01
28927;BME280;16038;47.692;9.400;2023-10-13T12:34:34;96563.97;;;26.84;43.96
28927;BME280;16038;47.692;9.400;2023-10-13T12:37:18;96550.91;;;26.24;44.36
28927;BME280;16038;47.692;9.400;2023-10-13T12:40:18;96555.97;;;26.01;44.20
28927;BME280;16038;47.692;9.400;2023-10-13T12:43:04;96534.63;;;25.43;46.10
28927;BME280;16038;47.692;9.400;2023-10-13T12:45:49;96529.66;;;25.80;46.91
28927;BME280;16038;47.692;9.400;2023-10-13T12:48:35;96529.34;;;25.97;45.93
28927;BME280;16038;47.692;9.400;2023-10-13T12:51:27;96531.31;;;26.05;45.53
28927;BME280;16038;47.692;9.400;2023-10-13T12:53:56;96522.34;;;25.83;46.18
28927;BME280;16038;47.692;9.400;2023-10-13T12:56:31;96523.72;;;25.87;46.46
28927;BME280;16038;47.692;9.400;2023-10-13T12:58:56;96515.75;;;25.52;47.14
28927;BME280;16038;47.692;9.400;2023-10-13T13:01:24;96522.16;;;25.16;47.62
28927;BME280;16038;47.692;9.400;2023-10-13T13:03:58;96511.88;;;25.22;48.08
28927;BME280;16038;47.692;9.400;2023-10-13T13:06:26;96510.16;;;25.15;48.56
28927;BME280;16038;47.692;9.400;2023-10-13T13:08:56;96500.38;;;25.02;49.25
28927;BME280;16038;47.692;9.400;2023-10-13T13:11:22;96501.16;;;25.11;47.97
28927;BME280;16038;47.692;9.400;2023-10-13T13:13:48;96495.22;;;25.09;48.95
28927;BME280;16038;47.692;9.400;2023-10-13T13:16:18;96489.78;;;25.15;50.16
28927;BME280;16038;47.692;9.400;2023-10-13T13:18:47;96490.56;;;24.97;49.97
28927;BME280;16038;47.692;9.400;2023-10-13T13:21:12;96486.06;;;24.81;50.29
28927;BME280;16038;47.692;9.400;2023-10-13T13:23:45;96483.53;;;24.46;51.76
28927;BME280;16038;47.692;9.400;2023-10-13T13:26:11;96485.34;;;24.21;52.52
28927;BME280;16038;47.692;9.400;2023-10-13T13:28:45;96476.16;;;24.12;52.79
28927;BME280;16038;47.692;9.400;2023-10-13T13:31:15;96469.56;;;23.56;55.64
28927;BME280;16038;47.692;9.400;2023-10-13T13:33:42;96461.53;;;23.67;57.27
28927;BME280;16038;47.692;9.400;2023-10-13T13:36:09;96464.56;;;23.82;57.05
28927;BME280;16038;47.692;9.400;2023-10-13T13:38:44;96455.50;;;23.69;56.96
28927;BME280;16038;47.692;9.400;2023-10-13T13:41:18;96455.97;;;23.76;57.52
28927;BME280;16038;47.692;9.400;2023-10-13T13:43:49;96456.19;;;23.82;55.53
28927;BME280;16038;47.692;9.400;2023-10-13T13:46:16;96451.69;;;23.84;56.72
28927;BME280;16038;47.692;9.400;2023-10-13T13:48:42;96443.94;;;23.48;60.80
28927;BME280;16038;47.692;9.400;2023-10-13T13:51:08;96442.72;;;23.58;57.23
28927;BME280;16038;47.692;9.400;2023-10-13T13:53:43;96433.63;;;23.76;57.22
28927;BME280;16038;47.692;9.400;2023-10-13T13:56:14;96441.81;;;23.71;55.85
28927;BME280;16038;47.692;9.400;2023-10-13T13:58:49;96437.94;;;23.68;56.59